Time;durP1;ratioP1;P1;durP2;ratioP2;P2;SDS_P1;SDS_P2;PMS_P1;PMS_P2;Temp;Humidity;BMP_temperature;BMP_pressure;BME280_temperature;BME280_humidity;BME280_pressure;Samples;Min_cycle;Max_cycle;Signal;HPM_P1;HPM_P2
2022/12/24 00:02:12;;;;;;;55.65;31.77;;;;;;;7.47;99.31;97966.59;1651412;87;21505;-37
2022/12/24 00:04:38;;;;;;;62.62;33.18;;;;;;;7.47;99.26;97967.42;1651617;87;21016;-36
2022/12/24 00:07:04;;;;;;;57.67;34.35;;;;;;;7.46;99.15;97959.22;1651414;86;21028;-38
2022/12/24 00:09:30;;;;;;;66.25;35.85;;;;;;;7.47;99.14;97956.13;1651352;87;21170;-37
2022/12/24 00:11:55;;;;;;;71.85;37.95;;;;;;;7.47;99.07;97957.44;1651375;87;21083;-38
2022/12/24 00:14:21;;;;;;;73.67;37.33;;;;;;;7.51;99.30;97951.06;1651334;87;21120;-37
2022/12/24 00:16:47;;;;;;;72.30;37.80;;;;;;;7.50;99.27;97946.78;1651398;87;21083;-37
2022/12/24 00:19:13;;;;;;;72.03;35.10;;;;;;;7.52;99.31;97952.75;1651397;87;21509;-37
2022/12/24 00:21:39;;;;;;;70.30;34.60;;;;;;;7.53;99.45;97957.50;1651343;87;21541;-37
2022/12/24 00:24:05;;;;;;;71.62;35.08;;;;;;;7.52;99.62;97960.60;1651466;87;21696;-37
2022/12/24 00:26:33;;;;;;;72.30;36.30;;;;;;;7.46;99.82;97955.77;1651373;87;21020;-39
2022/12/24 00:28:59;;;;;;;72.75;34.00;;;;;;;7.47;100.00;97956.95;1651687;86;21016;-38
2022/12/24 00:31:25;;;;;;;72.70;36.15;;;;;;;7.47;100.00;97958.27;1651348;87;21035;-41
2022/12/24 00:33:51;;;;;;;79.55;37.53;;;;;;;7.46;100.00;97953.98;1651320;87;20988;-40
2022/12/24 00:36:18;;;;;;;72.50;36.13;;;;;;;7.46;100.00;97959.22;1651348;87;21015;-36
2022/12/24 00:38:44;;;;;;;75.72;35.38;;;;;;;7.47;100.00;97954.82;1651551;87;21498;-36
2022/12/24 00:41:23;;;;;;;69.62;33.02;;;;;;;7.40;100.00;97950.91;1651371;86;21004;-36
2022/12/24 00:43:59;;;;;;;68.05;34.67;;;;;;;7.41;100.00;97949.98;1651385;87;21008;-36
2022/12/24 00:46:27;;;;;;;64.10;31.93;;;;;;;7.42;100.00;97950.34;1651401;87;21488;-37
2022/12/24 00:48:54;;;;;;;71.05;30.90;;;;;;;7.42;100.00;97949.03;1651091;86;21027;-37
2022/12/24 00:51:21;;;;;;;63.63;30.90;;;;;;;7.38;100.00;97948.88;1651090;87;21028;-40
2022/12/24 00:53:47;;;;;;;63.70;31.30;;;;;;;7.39;100.00;97951.87;1651281;87;21035;-38
2022/12/24 00:56:13;;;;;;;60.90;29.15;;;;;;;7.38;100.00;97948.39;1651252;87;21063;-37
2022/12/24 00:58:39;;;;;;;58.95;29.60;;;;;;;7.40;100.00;97948.30;1651228;87;21056;-38
2022/12/24 01:01:06;;;;;;;59.42;29.35;;;;;;;7.42;100.00;97951.66;1651269;87;21020;-38
2022/12/24 01:03:34;;;;;;;51.37;27.42;;;;;;;7.40;100.00;97949.61;1651496;86;21011;-38
2022/12/24 01:06:06;;;;;;;58.40;28.45;;;;;;;7.39;100.00;97946.64;1639330;87;20992;-39
2022/12/24 01:08:33;;;;;;;49.33;26.52;;;;;;;7.38;100.00;97945.78;1650149;87;20992;-38
2022/12/24 01:10:59;;;;;;;51.47;26.67;;;;;;;7.40;100.00;97949.13;1650547;87;21582;-40
2022/12/24 01:13:25;;;;;;;44.60;24.63;;;;;;;7.43;100.00;97950.73;1651215;86;21549;-39
2022/12/24 01:15:51;;;;;;;50.83;25.55;;;;;;;7.44;100.00;97949.77;1630462;87;21008;-40
2022/12/24 01:18:17;;;;;;;49.95;25.45;;;;;;;7.50;100.00;97941.08;1651248;87;20996;-37
2022/12/24 01:20:43;;;;;;;47.27;25.80;;;;;;;7.49;100.00;97946.40;1651293;87;21012;-37
2022/12/24 01:23:09;;;;;;;43.08;23.77;;;;;;;7.48;100.00;97946.88;1651259;86;21509;-38
2022/12/24 01:25:39;;;;;;;48.70;25.30;;;;;;;7.44;100.00;97940.63;1651304;87;21490;-40
2022/12/24 01:28:05;;;;;;;42.80;24.23;;;;;;;7.47;100.00;97941.27;1638468;87;21051;-40
2022/12/24 01:30:31;;;;;;;51.15;24.72;;;;;;;7.47;100.00;97941.74;1651149;87;21028;-39
2022/12/24 01:32:57;;;;;;;44.30;23.55;;;;;;;7.47;100.00;97943.05;1651170;86;21027;-36
2022/12/24 01:35:23;;;;;;;43.78;23.38;;;;;;;7.45;100.00;97943.63;1651204;86;21048;-40
2022/12/24 01:37:49;;;;;;;44.50;22.70;;;;;;;7.46;100.00;97945.31;1651212;86;21016;-39
2022/12/24 01:45:52;;;;;;;39.83;22.02;;;;;;;7.41;100.00;97942.98;1651372;87;21572;-37
2022/12/24 01:48:44;;;;;;;34.75;20.90;;;;;;;7.41;100.00;97944.28;1638603;86;21036;-37
2022/12/24 01:51:15;;;;;;;36.50;20.50;;;;;;;7.43;100.00;97944.19;1651398;87;21026;-38
2022/12/24 01:53:45;;;;;;;39.03;20.97;;;;;;;7.43;100.00;97938.96;1651429;87;21060;-39
2022/12/24 01:56:12;;;;;;;40.12;21.12;;;;;;;7.41;100.00;97940.36;1651455;87;21493;-39
2022/12/24 01:58:42;;;;;;;37.23;20.70;;;;;;;7.41;100.00;97944.77;1651556;87;21533;-37
2022/12/24 02:01:08;;;;;;;37.88;19.98;;;;;;;7.44;100.00;97939.31;1651437;86;21020;-38
2022/12/24 02:03:34;;;;;;;35.33;21.02;;;;;;;7.43;100.00;97938.48;1651452;87;21022;-38
2022/12/24 02:06:00;;;;;;;32.78;20.85;;;;;;;7.41;100.00;97941.67;1651409;87;21096;-38
2022/12/24 02:08:38;;;;;;;35.83;20.57;;;;;;;7.41;100.00;97935.61;1651417;87;21012;-37
2022/12/24 02:10:54;;;;;;;35.70;21.57;;;;;;;7.44;100.00;97934.08;1649662;87;21176;-37
2022/12/24 02:13:20;;;;;;;36.05;21.20;;;;;;;7.44;100.00;97936.70;1651398;87;21454;-38
2022/12/24 02:16:04;;;;;;;33.40;20.70;;;;;;;7.46;100.00;97933.55;1651441;86;21462;-37
2022/12/24 02:18:53;;;;;;;35.43;19.67;;;;;;;7.46;100.00;97932.23;1651302;87;21493;-39
2022/12/24 02:22:09;;;;;;;35.48;20.85;;;;;;;7.47;100.00;97935.20;1651105;87;21506;-37
2022/12/24 02:25:26;;;;;;;33.73;20.68;;;;;;;7.47;100.00;97932.11;1651609;87;21016;-38
2022/12/24 02:28:13;;;;;;;;;;;;;;;7.47;100.00;97932.11;1644837;87;20996;-40
2022/12/24 02:30:43;;;;;;;32.20;19.60;;;;;;;7.44;100.00;97932.33;1648096;87;20123;-39
2022/12/24 02:33:43;;;;;;;33.90;20.40;;;;;;;7.45;100.00;97930.55;1647867;87;21505;-37
2022/12/24 02:36:26;;;;;;;36.58;21.42;;;;;;;7.46;100.00;97933.55;1648172;86;21378;-37
2022/12/24 02:39:03;;;;;;;32.05;20.12;;;;;;;7.42;100.00;97928.97;1626115;87;20981;-37
2022/12/24 02:43:34;;;;;;;37.15;19.45;;;;;;;7.40;100.00;97932.61;1800615;79;22551;-37
2022/12/24 02:46:08;;;;;;;35.25;19.80;;;;;;;7.32;100.00;97934.89;1761890;81;21563;-36
2022/12/24 02:48:36;;;;;;;32.00;19.45;;;;;;;7.33;100.00;97931.32;1761821;81;21023;-37
2022/12/24 02:51:06;;;;;;;29.10;18.30;;;;;;;7.32;100.00;97931.80;1761850;81;20987;-37
2022/12/24 02:53:33;;;;;;;29.15;17.50;;;;;;;7.33;100.00;97932.62;1761901;81;20959;-39
2022/12/24 02:56:30;;;;;;;30.25;18.40;;;;;;;7.34;99.95;97936.45;1762044;80;21511;-37
2022/12/24 02:59:14;;;;;;;38.00;19.95;;;;;;;7.36;99.84;97938.50;1712059;81;21495;-35
2022/12/24 03:02:03;;;;;;;30.00;18.92;;;;;;;7.35;99.69;97941.21;1761343;81;21027;-36
2022/12/24 03:05:04;;;;;;;28.75;18.17;;;;;;;7.33;99.63;97932.62;1761648;81;20955;-37
2022/12/24 03:07:35;;;;;;;28.20;18.77;;;;;;;7.33;99.77;97937.86;1761831;81;21026;-38
2022/12/24 03:10:13;;;;;;;30.25;19.35;;;;;;;7.34;99.72;97939.08;1761897;81;21046;-36
2022/12/24 03:12:46;;;;;;;30.80;19.10;;;;;;;7.30;99.63;97933.20;1761052;80;21548;-39
2022/12/24 03:15:16;;;;;;;32.10;19.90;;;;;;;7.30;99.47;97930.58;1761985;81;20959;-39
2022/12/24 03:17:46;;;;;;;29.15;18.48;;;;;;;7.33;99.42;97937.86;1761795;81;21029;-38
2022/12/24 03:20:18;;;;;;;31.57;19.65;;;;;;;7.33;99.27;97932.62;1761938;81;21030;-39
2022/12/24 03:22:44;;;;;;;32.20;19.85;;;;;;;7.34;99.24;97936.94;1761620;81;21033;-37
2022/12/24 03:25:09;;;;;;;30.82;19.35;;;;;;;7.29;99.23;97932.84;1761893;81;21017;-39
2022/12/24 03:27:37;;;;;;;32.30;19.10;;;;;;;7.27;99.34;97936.00;1761920;81;21457;-38
2022/12/24 03:30:09;;;;;;;29.40;19.27;;;;;;;7.27;99.51;97939.09;1761904;81;20999;-37
2022/12/24 03:32:35;;;;;;;28.87;18.77;;;;;;;7.26;99.70;97936.13;1761244;81;21026;-39
2022/12/24 03:35:01;;;;;;;27.42;18.15;;;;;;;7.27;99.47;97936.48;1761836;81;20995;-40
2022/12/24 03:37:27;;;;;;;26.10;18.30;;;;;;;7.27;99.46;97937.78;1762083;80;21441;-38
2022/12/24 03:39:53;;;;;;;28.77;19.12;;;;;;;7.26;99.84;97936.95;1762020;81;21026;-39
2022/12/24 03:42:19;;;;;;;29.20;18.60;;;;;;;7.27;99.42;97931.24;1761816;81;21519;-37
2022/12/24 03:44:45;;;;;;;31.70;19.02;;;;;;;7.27;99.55;97936.00;1762039;81;21062;-39
2022/12/24 03:47:10;;;;;;;30.25;19.00;;;;;;;7.26;99.64;97936.95;1762067;81;20995;-38
2022/12/24 03:49:36;;;;;;;32.55;19.95;;;;;;;7.24;99.14;97936.66;1762073;81;20995;-38
2022/12/24 03:52:02;;;;;;;31.40;19.15;;;;;;;7.24;99.14;97936.66;1762307;81;20963;-38
2022/12/24 03:54:28;;;;;;;30.02;19.10;;;;;;;7.25;99.25;97935.26;1761606;81;20983;-39
2022/12/24 03:56:54;;;;;;;33.38;18.40;;;;;;;7.25;99.15;97932.64;1761648;81;20956;-38
2022/12/24 03:59:20;;;;;;;28.90;19.15;;;;;;;7.25;99.10;97935.73;1761483;81;21003;-40
2022/12/24 04:01:46;;;;;;;26.37;18.23;;;;;;;7.22;98.92;97928.94;1761467;81;21003;-38
2022/12/24 04:04:11;;;;;;;30.48;19.10;;;;;;;7.19;98.91;97935.66;1761513;81;20995;-37
2022/12/24 04:06:37;;;;;;;32.15;18.98;;;;;;;7.20;99.10;97929.48;1761528;81;20963;-37
2022/12/24 04:09:04;;;;;;;32.67;19.45;;;;;;;7.22;99.04;97934.17;1761534;81;21035;-39
2022/12/24 04:11:31;;;;;;;29.25;18.62;;;;;;;7.22;98.56;97938.09;1761544;81;21035;-39
2022/12/24 04:13:57;;;;;;;27.48;18.80;;;;;;;7.21;98.48;97933.78;1761602;81;20964;-40
2022/12/24 04:16:23;;;;;;;29.82;19.57;;;;;;;7.23;98.56;97931.91;1761596;81;20995;-37
2022/12/24 04:18:49;;;;;;;25.77;18.48;;;;;;;7.22;98.48;97922.84;1761592;81;21496;-39
2022/12/24 04:21:15;;;;;;;27.55;18.48;;;;;;;7.20;98.39;97925.55;1761522;81;20992;-39
2022/12/24 04:23:42;;;;;;;32.03;19.45;;;;;;;7.22;98.67;97925.02;1761734;81;21033;-40
2022/12/24 04:26:11;;;;;;;32.15;20.30;;;;;;;7.20;98.54;97925.55;1761855;81;21382;-38
2022/12/24 04:28:38;;;;;;;26.77;19.37;;;;;;;7.21;98.50;97927.25;1761583;81;20991;-37
2022/12/24 04:31:09;;;;;;;28.52;20.08;;;;;;;7.21;98.48;97931.64;1761645;81;20987;-37
2022/12/24 04:33:35;;;;;;;28.32;19.00;;;;;;;7.21;98.45;97922.02;1744434;81;20988;-38
2022/12/24 04:36:03;;;;;;;33.90;19.30;;;;;;;7.19;98.40;97921.28;1761493;81;20999;-39
2022/12/24 04:38:30;;;;;;;30.72;20.37;;;;;;;7.19;98.46;97922.59;1761497;81;21003;-37
2022/12/24 04:41:06;;;;;;;34.73;20.92;;;;;;;7.21;98.41;97922.50;1761722;80;20992;-39
2022/12/24 04:43:32;;;;;;;32.13;21.25;;;;;;;7.23;98.40;97926.67;1761386;81;21062;-37
2022/12/24 04:46:13;;;;;;;30.32;20.25;;;;;;;7.23;98.29;97924.06;1761579;81;20960;-37
2022/12/24 04:48:40;;;;;;;32.17;20.23;;;;;;;7.24;98.37;97927.51;1761501;80;21007;-40
2022/12/24 04:51:08;;;;;;;31.77;20.70;;;;;;;7.23;98.52;97929.30;1761660;81;21496;-39
2022/12/24 04:53:35;;;;;;;29.77;20.60;;;;;;;7.21;98.41;97929.86;1761609;80;20991;-38
2022/12/24 04:56:01;;;;;;;37.38;22.62;;;;;;;7.24;98.39;97931.43;1761614;81;20999;-38
2022/12/24 04:58:28;;;;;;;32.98;21.73;;;;;;;7.22;98.48;97926.33;1761624;81;20963;-37
2022/12/24 05:00:55;;;;;;;33.33;21.40;;;;;;;7.21;98.34;97929.86;1761743;81;21030;-37
2022/12/24 05:03:20;;;;;;;35.17;22.42;;;;;;;7.21;98.41;97927.25;1761450;81;20999;-39
2022/12/24 05:05:46;;;;;;;40.75;23.35;;;;;;;7.21;98.33;97931.17;1761478;81;21448;-40
2022/12/24 05:08:13;;;;;;;39.40;24.52;;;;;;;7.20;98.33;97932.57;1761458;81;20956;-40
2022/12/24 05:10:39;;;;;;;37.15;24.25;;;;;;;7.19;98.18;97930.43;1761599;81;21630;-38
2022/12/24 05:13:05;;;;;;;34.48;23.25;;;;;;;7.19;98.37;97936.97;1761578;81;20991;-38
2022/12/24 05:15:30;;;;;;;36.85;22.30;;;;;;;7.18;98.22;97937.89;1761500;81;21642;-37
2022/12/24 05:17:57;;;;;;;33.63;22.37;;;;;;;7.20;98.25;97937.32;1761600;81;21022;-40
2022/12/24 05:20:23;;;;;;;35.85;21.85;;;;;;;7.22;98.10;97938.53;1761442;80;21003;-39
2022/12/24 05:28:22;;;;;;;39.48;23.38;;;;;;;7.21;98.07;97944.72;1761560;81;20979;-38
2022/12/24 05:30:48;;;;;;;34.78;22.52;;;;;;;7.20;98.15;97945.16;1761552;81;21489;-39
2022/12/24 05:33:13;;;;;;;38.28;23.05;;;;;;;7.21;98.17;97942.11;1761500;81;20984;-36
2022/12/24 05:35:39;;;;;;;36.50;22.37;;;;;;;7.21;98.21;97937.70;1761464;81;21437;-38
2022/12/24 05:38:05;;;;;;;35.52;22.62;;;;;;;7.23;98.12;97944.15;1761426;81;20995;-40
2022/12/24 05:40:31;;;;;;;37.25;22.27;;;;;;;7.20;98.02;97942.55;1761433;81;20991;-38
2022/12/24 05:42:56;;;;;;;38.88;21.95;;;;;;;7.19;98.02;97946.12;1761329;81;21043;-38
2022/12/24 05:45:22;;;;;;;39.65;23.12;;;;;;;7.19;98.21;97942.67;1761447;81;21003;-38
2022/12/24 05:47:48;;;;;;;34.03;21.60;;;;;;;7.19;98.04;97944.81;1761399;80;21461;-39
2022/12/24 05:50:14;;;;;;;31.90;20.95;;;;;;;7.20;98.17;97947.78;1761758;81;20956;-39
2022/12/24 05:52:40;;;;;;;30.32;20.62;;;;;;;7.20;98.14;97952.17;1761565;81;20988;-37
2022/12/24 05:55:07;;;;;;;29.42;19.98;;;;;;;7.18;97.97;97949.66;1761447;81;20991;-37
2022/12/24 05:57:33;;;;;;;;;;;;;;;7.14;97.96;97944.25;1764053;81;21492;-39
2022/12/24 05:59:59;;;;;;;31.50;20.40;;;;;;;7.15;97.89;97946.39;1761473;81;20105;-40
2022/12/24 06:02:25;;;;;;;36.08;21.70;;;;;;;7.14;98.10;97947.34;1761410;81;21031;-39
2022/12/24 06:04:50;;;;;;;32.88;20.90;;;;;;;7.11;98.21;97949.67;1761430;81;20972;-39
2022/12/24 06:07:16;;;;;;;30.68;21.07;;;;;;;7.14;98.25;97952.09;1761436;81;20956;-38
2022/12/24 06:09:42;;;;;;;34.27;21.75;;;;;;;7.14;98.32;97952.09;1761441;81;21049;-38
2022/12/24 06:12:08;;;;;;;32.67;21.52;;;;;;;7.15;98.18;97953.80;1761514;81;21042;-37
2022/12/24 06:14:34;;;;;;;32.40;21.15;;;;;;;7.17;98.17;97956.28;1761403;81;20995;-38
2022/12/24 06:16:59;;;;;;;32.50;22.00;;;;;;;7.14;98.05;97954.71;1761302;81;21000;-37
2022/12/24 06:19:25;;;;;;;32.50;21.30;;;;;;;7.14;98.20;97959.94;1761426;81;20960;-38
2022/12/24 06:21:51;;;;;;;31.35;21.23;;;;;;;7.13;98.07;97956.97;1761389;81;20991;-37
2022/12/24 06:24:17;;;;;;;33.40;22.02;;;;;;;7.14;98.00;97963.86;1761463;81;20956;-39
2022/12/24 06:26:43;;;;;;;37.95;23.02;;;;;;;7.13;98.00;97960.89;1761496;81;21496;-38
2022/12/24 06:29:09;;;;;;;37.88;24.43;;;;;;;7.11;98.13;97959.68;1761398;81;21007;-37
2022/12/24 06:31:35;;;;;;;38.48;25.10;;;;;;;7.12;98.06;97963.12;1761343;81;21495;-40
2022/12/24 06:34:00;;;;;;;35.90;23.87;;;;;;;7.13;97.93;97964.81;1761392;81;20968;-36
2022/12/24 06:36:26;;;;;;;37.35;24.75;;;;;;;7.14;98.05;97967.78;1761427;81;20963;-37
2022/12/24 06:38:53;;;;;;;36.60;24.18;;;;;;;7.12;97.97;97969.66;1761429;81;20959;-37
2022/12/24 06:41:20;;;;;;;37.70;23.70;;;;;;;7.11;97.87;97971.89;1761609;81;20991;-41
2022/12/24 06:43:49;;;;;;;36.40;23.33;;;;;;;7.16;97.90;97974.23;1752702;81;21059;-38
2022/12/24 06:46:17;;;;;;;31.55;22.22;;;;;;;7.18;97.64;97973.66;1748129;81;21008;-39
2022/12/24 06:48:44;;;;;;;34.60;23.02;;;;;;;7.19;97.49;97975.35;1748298;82;20987;-37
2022/12/24 06:51:11;;;;;;;38.75;22.75;;;;;;;7.16;97.43;97977.67;1748209;81;20992;-38
2022/12/24 06:53:37;;;;;;;34.00;22.85;;;;;;;7.14;97.57;97984.78;1748268;81;21532;-40
2022/12/24 06:56:06;;;;;;;35.70;23.98;;;;;;;7.10;97.83;97982.82;1748031;82;20953;-38
2022/12/24 06:58:33;;;;;;;35.17;23.67;;;;;;;7.15;97.64;97986.47;1748076;81;21018;-38
2022/12/24 07:01:04;;;;;;;33.35;22.35;;;;;;;7.14;97.70;97990.00;1748287;81;21469;-38
2022/12/24 07:03:31;;;;;;;32.38;22.13;;;;;;;7.12;97.81;97993.19;1748025;81;21000;-37
2022/12/24 07:05:57;;;;;;;36.63;23.90;;;;;;;7.11;97.88;97994.11;1748412;81;21759;-40
2022/12/24 07:08:23;;;;;;;33.92;22.30;;;;;;;7.12;97.89;97997.11;1748074;81;21535;-37
2022/12/24 07:10:50;;;;;;;31.27;21.62;;;;;;;7.10;98.11;97997.20;1748098;81;20991;-37
2022/12/24 07:13:17;;;;;;;38.90;24.47;;;;;;;7.10;98.23;98004.21;1748288;81;21032;-37
2022/12/24 07:15:43;;;;;;;36.60;22.30;;;;;;;7.10;98.07;98004.21;1748633;82;21027;-38
2022/12/24 07:18:09;;;;;;;36.13;23.53;;;;;;;7.10;98.03;98005.52;1748409;81;21042;-38
2022/12/24 07:20:35;;;;;;;41.88;25.02;;;;;;;7.13;98.07;98009.26;1748000;82;20996;-39
2022/12/24 07:23:01;;;;;;;43.98;25.55;;;;;;;7.12;98.15;98012.80;1748051;81;21027;-38
2022/12/24 07:25:27;;;;;;;32.78;23.45;;;;;;;7.14;98.14;98020.07;1748082;81;21035;-37
2022/12/24 07:27:52;;;;;;;38.33;23.57;;;;;;;7.15;97.97;98016.53;1747990;81;21010;-38
2022/12/24 07:30:18;;;;;;;34.15;23.35;;;;;;;7.17;97.92;98018.59;1748157;82;21003;-38
2022/12/24 07:32:44;;;;;;;38.65;23.52;;;;;;;7.17;97.75;98026.42;1747059;82;20996;-38
2022/12/24 07:35:10;;;;;;;37.20;23.25;;;;;;;7.20;97.61;98033.23;1747134;81;22285;-38
2022/12/24 07:37:35;;;;;;;38.38;24.35;;;;;;;7.18;97.56;98035.94;1746911;81;21595;-39
2022/12/24 07:40:05;;;;;;;43.78;25.32;;;;;;;7.22;97.65;98040.06;1746952;82;21031;-37
2022/12/24 07:42:30;;;;;;;38.65;24.40;;;;;;;7.25;97.66;98045.55;1748423;80;21465;-38
2022/12/24 07:44:56;;;;;;;32.85;22.50;;;;;;;7.23;97.14;98047.43;1761478;81;21063;-41
2022/12/24 07:47:22;;;;;;;35.58;21.50;;;;;;;7.21;97.00;98048.83;1761673;80;21007;-37
2022/12/24 07:49:47;;;;;;;40.30;22.42;;;;;;;7.24;97.04;98053.88;1761480;81;20967;-39
2022/12/24 07:52:13;;;;;;;44.03;23.73;;;;;;;7.23;97.05;98053.48;1761414;81;21031;-37
2022/12/24 07:54:39;;;;;;;36.28;21.60;;;;;;;7.23;96.98;98056.58;1761389;80;20971;-37
2022/12/24 07:57:05;;;;;;;30.12;19.52;;;;;;;7.22;96.97;98058.36;1761451;81;21059;-37
2022/12/24 07:59:31;;;;;;;34.20;20.45;;;;;;;7.20;96.82;98069.84;1761530;81;20991;-38
2022/12/24 08:01:56;;;;;;;33.83;19.73;;;;;;;7.18;96.72;98074.32;1761512;81;21430;-37
2022/12/24 08:04:22;;;;;;;26.25;16.65;;;;;;;7.16;96.78;98081.42;1761424;80;20979;-37
2022/12/24 08:06:48;;;;;;;30.52;18.85;;;;;;;7.11;96.81;98079.94;1761466;81;21488;-38
2022/12/24 08:09:14;;;;;;;33.60;20.68;;;;;;;7.09;96.95;98079.19;1761450;81;21038;-39
2022/12/24 08:11:40;;;;;;;33.60;19.87;;;;;;;7.05;97.21;98082.90;1761369;81;20999;-37
2022/12/24 08:14:06;;;;;;;28.90;15.25;;;;;;;7.07;97.25;98077.58;1761440;81;21026;-37
2022/12/24 08:16:31;;;;;;;29.70;16.52;;;;;;;7.13;96.88;98080.29;1761476;81;21029;-38
2022/12/24 08:18:57;;;;;;;26.55;14.40;;;;;;;7.08;97.03;98087.13;1761506;81;21618;-40
2022/12/24 08:21:23;;;;;;;21.48;13.48;;;;;;;7.02;96.81;98079.63;1761373;81;21524;-40
2022/12/24 08:23:49;;;;;;;16.80;11.85;;;;;;;7.01;96.77;98093.65;1761384;81;21038;-39
2022/12/24 08:26:16;;;;;;;21.70;13.05;;;;;;;7.02;96.78;98096.17;1761388;81;20971;-39
2022/12/24 08:28:42;;;;;;;19.77;12.55;;;;;;;7.01;96.68;98098.88;1761543;81;20991;-38
2022/12/24 08:31:09;;;;;;;21.15;13.70;;;;;;;6.97;96.91;98101.27;1744297;81;20989;-37
2022/12/24 08:33:35;;;;;;;24.43;13.83;;;;;;;7.01;96.91;98103.63;1761552;81;21500;-39
2022/12/24 08:36:01;;;;;;;27.55;15.28;;;;;;;7.03;96.89;98106.16;1761478;81;20964;-39
2022/12/24 08:38:27;;;;;;;25.32;14.55;;;;;;;7.03;96.77;98103.55;1761654;80;20991;-37
2022/12/24 08:40:54;;;;;;;23.73;14.50;;;;;;;7.03;96.70;98109.60;1761519;81;21007;-42
2022/12/24 08:43:20;;;;;;;21.15;14.07;;;;;;;7.03;96.67;98107.46;1761447;81;20984;-39
2022/12/24 08:45:51;;;;;;;22.85;12.85;;;;;;;7.04;96.68;98113.05;1761612;81;20995;-39
2022/12/24 08:48:15;;;;;;;24.72;16.12;;;;;;;7.09;96.62;98112.31;1760040;81;20989;-38
2022/12/24 08:50:42;;;;;;;24.60;12.43;;;;;;;7.07;96.38;98116.32;1761410;81;20971;-38
2022/12/24 08:53:08;;;;;;;20.63;12.10;;;;;;;7.07;96.35;98118.94;1761563;81;20999;-39
2022/12/24 08:55:34;;;;;;;28.03;16.17;;;;;;;7.09;96.41;98119.71;1761670;81;21287;-39
2022/12/24 08:58:00;;;;;;;19.30;11.35;;;;;;;7.04;96.41;98124.37;1761344;81;21037;-37
2022/12/24 09:00:27;;;;;;;20.17;13.43;;;;;;;7.08;96.39;98125.03;1761420;80;21151;-37
2022/12/24 09:02:53;;;;;;;20.90;13.15;;;;;;;7.05;96.19;98127.81;1761437;81;20976;-39
2022/12/24 09:05:18;;;;;;;19.65;12.28;;;;;;;7.05;96.32;98133.87;1761383;81;21480;-36
2022/12/24 09:07:44;;;;;;;21.40;13.98;;;;;;;7.08;96.23;98135.00;1761382;80;20964;-38
2022/12/24 09:10:11;;;;;;;19.67;13.38;;;;;;;7.01;95.77;98145.92;1761596;81;21042;-37
2022/12/24 09:12:37;;;;;;;20.08;11.90;;;;;;;7.01;95.93;98151.16;1761386;81;20999;-38
2022/12/24 09:15:06;;;;;;;14.25;10.20;;;;;;;7.04;96.13;98154.87;1761458;81;21002;-39
2022/12/24 09:17:32;;;;;;;15.20;10.63;;;;;;;7.06;95.91;98156.95;1761252;81;21034;-38
2022/12/24 09:19:57;;;;;;;16.35;11.20;;;;;;;7.03;95.72;98155.82;1744343;81;21018;-39
2022/12/24 09:22:23;;;;;;;18.82;10.82;;;;;;;7.01;95.76;98162.91;1761303;81;20995;-39
2022/12/24 09:24:49;;;;;;;15.08;9.88;;;;;;;7.04;95.99;98161.41;1761499;81;21448;-38
2022/12/24 09:27:15;;;;;;;14.78;9.70;;;;;;;7.03;95.89;98164.97;1761493;81;21822;-38
2022/12/24 09:29:40;;;;;;;13.78;10.08;;;;;;;7.08;96.07;98167.69;1761369;81;20948;-38
2022/12/24 09:32:07;;;;;;;16.07;11.38;;;;;;;7.06;95.71;98175.25;1761339;81;21035;-37
2022/12/24 09:34:33;;;;;;;23.22;16.20;;;;;;;7.06;95.81;98172.64;1744333;81;20987;-37
2022/12/24 09:37:01;;;;;;;15.43;11.20;;;;;;;7.08;95.82;98176.00;1761274;81;20995;-38
2022/12/24 09:39:26;;;;;;;;;;;;;;;7.15;96.03;98183.86;1763889;81;20972;-37
2022/12/24 09:42:06;;;;;;;12.18;9.08;;;;;;;7.16;95.54;98183.38;1761400;81;20496;-38
2022/12/24 09:44:52;;;;;;;18.95;13.03;;;;;;;7.17;95.42;98187.66;1760364;80;21489;-39
2022/12/24 09:47:30;;;;;;;26.55;15.03;;;;;;;7.16;95.20;98192.06;1761030;80;21015;-38
2022/12/24 09:49:58;;;;;;;15.45;11.20;;;;;;;7.11;95.27;98194.10;1758773;81;21026;-37
2022/12/24 09:52:35;;;;;;;18.20;11.20;;;;;;;7.13;95.10;98197.49;1761346;81;21457;-37
2022/12/24 09:55:27;;;;;;;20.67;13.67;;;;;;;7.01;95.13;98206.05;1761614;81;21314;-37
2022/12/24 09:57:56;;;;;;;15.38;10.72;;;;;;;7.04;95.33;98208.45;1761344;81;21390;-40
2022/12/24 10:00:30;;;;;;;13.78;9.73;;;;;;;7.02;95.05;98211.63;1761279;81;20995;-39
2022/12/24 10:02:56;;;;;;;16.55;10.95;;;;;;;6.99;95.37;98213.14;1760955;81;21026;-37
2022/12/24 10:05:39;;;;;;;18.80;13.00;;;;;;;6.95;95.36;98220.75;1761377;80;21025;-38
2022/12/24 10:08:16;;;;;;;18.17;12.55;;;;;;;6.92;95.31;98222.63;1760111;80;21043;-39
2022/12/24 10:10:52;;;;;;;24.75;16.35;;;;;;;6.91;95.38;98223.56;1761493;80;20998;-38
2022/12/24 10:13:44;;;;;;;32.58;20.50;;;;;;;6.78;95.57;98231.70;1761477;80;21516;-36
2022/12/24 10:16:18;;;;;;;27.90;18.90;;;;;;;6.76;95.54;98235.35;1761086;81;20999;-38
2022/12/24 10:19:12;;;;;;;33.23;20.35;;;;;;;6.71;95.68;98236.46;1760999;81;20990;-37
2022/12/24 10:21:59;;;;;;;33.95;19.73;;;;;;;6.75;95.74;98242.36;1761321;81;20995;-37
2022/12/24 10:24:31;;;;;;;38.65;22.13;;;;;;;6.73;96.12;98231.13;1761502;81;20998;-36
2022/12/24 10:27:08;;;;;;;36.03;21.15;;;;;;;6.75;96.26;98237.12;1761411;81;21508;-37
2022/12/24 10:29:39;;;;;;;30.48;19.32;;;;;;;6.66;96.40;98237.18;1754103;81;21861;-40
2022/12/24 10:32:19;;;;;;;25.10;18.92;;;;;;;6.66;96.25;98245.02;1761400;81;20982;-39
2022/12/24 10:35:17;;;;;;;27.22;17.23;;;;;;;6.69;96.39;98251.39;1759908;81;20991;-37
2022/12/24 10:37:46;;;;;;;30.60;17.80;;;;;;;6.71;96.37;98249.52;1761306;81;21445;-40
2022/12/24 10:40:35;;;;;;;35.75;22.75;;;;;;;6.76;96.31;98258.39;1761376;81;21003;-39
2022/12/24 10:43:01;;;;;;;33.95;19.95;;;;;;;6.78;96.48;98264.38;1761273;81;20944;-38
2022/12/24 10:45:32;;;;;;;29.98;19.07;;;;;;;6.78;96.44;98268.77;1749244;81;21063;-39
2022/12/24 10:48:03;;;;;;;30.12;19.75;;;;;;;6.79;96.46;98272.61;1747430;81;21532;-39
2022/12/24 10:50:40;;;;;;;31.80;18.73;;;;;;;6.83;96.37;98275.41;1747963;81;20983;-38
2022/12/24 10:53:21;;;;;;;26.95;17.25;;;;;;;6.81;96.32;98280.36;1748109;81;20972;-39
2022/12/24 10:55:48;;;;;;;28.67;17.77;;;;;;;6.82;96.35;98280.72;1747881;81;21532;-37
2022/12/24 10:58:19;;;;;;;35.63;18.02;;;;;;;6.82;96.48;98284.64;1748077;81;21500;-38
2022/12/24 11:00:52;;;;;;;56.58;31.68;;;;;;;6.81;96.33;98289.03;1747946;82;20987;-39
2022/12/24 11:03:23;;;;;;;33.10;20.25;;;;;;;6.87;96.27;98299.13;1747986;81;20975;-39
2022/12/24 11:06:05;;;;;;;32.90;19.25;;;;;;;6.88;96.24;98300.83;1747205;81;20980;-38
2022/12/24 11:08:33;;;;;;;36.85;22.27;;;;;;;6.89;96.37;98306.45;1748143;81;20995;-37
2022/12/24 11:11:06;;;;;;;38.90;22.82;;;;;;;6.96;96.23;98311.32;1748285;81;20976;-40
2022/12/24 11:13:40;;;;;;;39.95;22.90;;;;;;;6.91;96.17;98312.43;1748146;81;21000;-38
2022/12/24 11:16:30;;;;;;;37.10;21.12;;;;;;;6.79;96.50;98311.80;1748139;81;20968;-37
2022/12/24 11:18:59;;;;;;;36.23;20.72;;;;;;;6.82;96.05;98316.86;1748178;81;20999;-37
2022/12/24 11:21:28;;;;;;;37.23;21.87;;;;;;;6.72;96.24;98315.67;1748128;81;21019;-40
2022/12/24 11:23:59;;;;;;;37.50;23.90;;;;;;;6.62;96.76;98324.50;1747580;82;21064;-38
2022/12/24 11:26:28;;;;;;;38.10;22.98;;;;;;;6.64;96.60;98332.22;1746819;81;21039;-37
2022/12/24 11:29:14;;;;;;;37.10;22.48;;;;;;;6.40;97.13;98330.48;1748104;81;21442;-38
2022/12/24 11:31:45;;;;;;;34.13;21.27;;;;;;;6.54;97.23;98326.19;1748390;81;21742;-39
2022/12/24 11:34:32;;;;;;;40.55;23.70;;;;;;;6.44;97.70;98331.55;1748124;81;20995;-39
2022/12/24 11:37:10;;;;;;;;;;;;;;;6.49;98.10;98345.22;1750706;81;21043;-40
2022/12/24 11:39:42;;;;;;;30.75;18.95;;;;;;;6.49;98.11;98352.19;1748086;82;20117;-39
2022/12/24 11:42:25;;;;;;;36.42;20.48;;;;;;;6.55;97.61;98353.18;1748090;81;21035;-37
2022/12/24 11:44:51;;;;;;;37.48;23.32;;;;;;;6.57;97.16;98355.69;1755361;81;20992;-39
2022/12/24 11:47:18;;;;;;;39.38;23.65;;;;;;;6.45;97.70;98363.26;1744300;81;21364;-36
2022/12/24 11:49:44;;;;;;;48.87;26.42;;;;;;;6.42;97.60;98368.66;1744521;81;20983;-38